sensor_id;sensor_type;location;lat;lon;timestamp;P1;durP1;ratioP1;P2;durP2;ratioP2
14231;SDS011;7200;52.194;9.900;2023-01-19T00:01:10;1.60;;;1.50;;
14231;SDS011;7200;52.194;9.900;2023-01-19T00:03:35;1.10;;;1.10;;
14231;SDS011;7200;52.194;9.900;2023-01-19T00:06:07;1.13;;;1.03;;
14231;SDS011;7200;52.194;9.900;2023-01-19T00:08:33;1.80;;;1.70;;
14231;SDS011;7200;52.194;9.900;2023-01-19T00:10:59;4.27;;;2.57;;
14231;SDS011;7200;52.194;9.900;2023-01-19T00:13:25;1.17;;;0.93;;
14231;SDS011;7200;52.194;9.900;2023-01-19T00:15:50;0.20;;;0.20;;
14231;SDS011;7200;52.194;9.900;2023-01-19T00:18:16;0.50;;;0.50;;
14231;SDS011;7200;52.194;9.900;2023-01-19T00:20:41;0.70;;;0.70;;
14231;SDS011;7200;52.194;9.900;2023-01-19T00:23:09;0.20;;;0.20;;
14231;SDS011;7200;52.194;9.900;2023-01-19T00:25:35;0.20;;;0.20;;
14231;SDS011;7200;52.194;9.900;2023-01-19T00:28:06;0.30;;;0.30;;
14231;SDS011;7200;52.194;9.900;2023-01-19T00:30:31;0.50;;;0.47;;
14231;SDS011;7200;52.194;9.900;2023-01-19T00:32:56;6.77;;;6.07;;
14231;SDS011;7200;52.194;9.900;2023-01-19T00:35:22;1.17;;;1.07;;
14231;SDS011;7200;52.194;9.900;2023-01-19T00:37:47;1.20;;;1.17;;
14231;SDS011;7200;52.194;9.900;2023-01-19T00:40:12;4.73;;;4.47;;
14231;SDS011;7200;52.194;9.900;2023-01-19T00:42:38;3.10;;;1.83;;
14231;SDS011;7200;52.194;9.900;2023-01-19T00:45:13;0.20;;;0.20;;
14231;SDS011;7200;52.194;9.900;2023-01-19T00:47:40;5.97;;;4.60;;
14231;SDS011;7200;52.194;9.900;2023-01-19T00:50:06;0.97;;;0.87;;
14231;SDS011;7200;52.194;9.900;2023-01-19T00:52:35;1.47;;;1.37;;
14231;SDS011;7200;52.194;9.900;2023-01-19T00:55:01;1.53;;;1.43;;
14231;SDS011;7200;52.194;9.900;2023-01-19T00:57:26;8.10;;;6.23;;
14231;SDS011;7200;52.194;9.900;2023-01-19T00:59:53;5.40;;;4.63;;
14231;SDS011;7200;52.194;9.900;2023-01-19T01:02:18;1.73;;;1.50;;
14231;SDS011;7200;52.194;9.900;2023-01-19T01:04:44;5.53;;;5.00;;
14231;SDS011;7200;52.194;9.900;2023-01-19T01:07:09;6.30;;;4.10;;
14231;SDS011;7200;52.194;9.900;2023-01-19T01:09:34;3.73;;;2.87;;
14231;SDS011;7200;52.194;9.900;2023-01-19T01:11:59;3.03;;;2.73;;
14231;SDS011;7200;52.194;9.900;2023-01-19T01:14:25;2.40;;;2.03;;
14231;SDS011;7200;52.194;9.900;2023-01-19T01:16:50;3.33;;;3.03;;
14231;SDS011;7200;52.194;9.900;2023-01-19T01:19:15;5.20;;;3.90;;
14231;SDS011;7200;52.194;9.900;2023-01-19T01:21:41;1.80;;;1.50;;
14231;SDS011;7200;52.194;9.900;2023-01-19T01:24:07;9.27;;;4.57;;
14231;SDS011;7200;52.194;9.900;2023-01-19T01:26:32;5.40;;;4.80;;
14231;SDS011;7200;52.194;9.900;2023-01-19T01:28:58;5.87;;;4.00;;
14231;SDS011;7200;52.194;9.900;2023-01-19T01:31:23;5.00;;;4.07;;
14231;SDS011;7200;52.194;9.900;2023-01-19T01:33:48;1.27;;;1.27;;
14231;SDS011;7200;52.194;9.900;2023-01-19T01:36:14;3.73;;;3.40;;
14231;SDS011;7200;52.194;9.900;2023-01-19T01:38:40;4.93;;;3.70;;
14231;SDS011;7200;52.194;9.900;2023-01-19T01:41:05;1.73;;;1.43;;
14231;SDS011;7200;52.194;9.900;2023-01-19T01:43:47;4.13;;;3.73;;
14231;SDS011;7200;52.194;9.900;2023-01-19T01:46:14;3.43;;;2.97;;
14231;SDS011;7200;52.194;9.900;2023-01-19T01:48:42;6.77;;;4.70;;
14231;SDS011;7200;52.194;9.900;2023-01-19T01:51:14;3.30;;;3.00;;
14231;SDS011;7200;52.194;9.900;2023-01-19T01:53:51;4.07;;;3.70;;
14231;SDS011;7200;52.194;9.900;2023-01-19T01:56:24;3.40;;;3.10;;
14231;SDS011;7200;52.194;9.900;2023-01-19T01:58:55;5.40;;;4.37;;
14231;SDS011;7200;52.194;9.900;2023-01-19T02:01:21;2.17;;;1.97;;
14231;SDS011;7200;52.194;9.900;2023-01-19T02:04:05;3.93;;;3.53;;
14231;SDS011;7200;52.194;9.900;2023-01-19T02:06:31;6.73;;;3.17;;
14231;SDS011;7200;52.194;9.900;2023-01-19T02:08:58;1.87;;;1.77;;
14231;SDS011;7200;52.194;9.900;2023-01-19T02:11:46;2.20;;;2.00;;
14231;SDS011;7200;52.194;9.900;2023-01-19T02:14:33;3.00;;;2.73;;
14231;SDS011;7200;52.194;9.900;2023-01-19T02:17:01;3.40;;;3.07;;
14231;SDS011;7200;52.194;9.900;2023-01-19T02:19:29;6.07;;;3.57;;
14231;SDS011;7200;52.194;9.900;2023-01-19T02:22:12;1.03;;;1.03;;
14231;SDS011;7200;52.194;9.900;2023-01-19T02:24:44;7.43;;;2.20;;
14231;SDS011;7200;52.194;9.900;2023-01-19T02:27:10;2.80;;;2.27;;
14231;SDS011;7200;52.194;9.900;2023-01-19T02:29:36;4.07;;;3.67;;
14231;SDS011;7200;52.194;9.900;2023-01-19T02:32:02;1.17;;;1.07;;
14231;SDS011;7200;52.194;9.900;2023-01-19T02:35:03;3.67;;;3.37;;
14231;SDS011;7200;52.194;9.900;2023-01-19T02:37:22;4.10;;;3.73;;
14231;SDS011;7200;52.194;9.900;2023-01-19T02:39:53;3.67;;;1.77;;
14231;SDS011;7200;52.194;9.900;2023-01-19T02:42:32;1.37;;;1.27;;
14231;SDS011;7200;52.194;9.900;2023-01-19T02:45:01;3.30;;;2.90;;
14231;SDS011;7200;52.194;9.900;2023-01-19T02:47:44;4.23;;;3.17;;
14231;SDS011;7200;52.194;9.900;2023-01-19T02:50:30;4.43;;;4.00;;
14231;SDS011;7200;52.194;9.900;2023-01-19T03:07:00;4.07;;;3.63;;
14231;SDS011;7200;52.194;9.900;2023-01-19T03:15:25;1.60;;;1.50;;
14231;SDS011;7200;52.194;9.900;2023-01-19T03:17:58;2.37;;;1.53;;
14231;SDS011;7200;52.194;9.900;2023-01-19T03:20:26;4.53;;;3.37;;
14231;SDS011;7200;52.194;9.900;2023-01-19T03:22:57;1.80;;;1.33;;
14231;SDS011;7200;52.194;9.900;2023-01-19T03:25:25;3.97;;;3.40;;
14231;SDS011;7200;52.194;9.900;2023-01-19T03:27:53;1.90;;;1.77;;
14231;SDS011;7200;52.194;9.900;2023-01-19T03:30:23;2.53;;;2.03;;
14231;SDS011;7200;52.194;9.900;2023-01-19T03:32:58;3.87;;;1.97;;
14231;SDS011;7200;52.194;9.900;2023-01-19T03:35:29;0.30;;;0.30;;
14231;SDS011;7200;52.194;9.900;2023-01-19T03:37:58;6.07;;;2.93;;
14231;SDS011;7200;52.194;9.900;2023-01-19T03:40:28;3.13;;;2.83;;
14231;SDS011;7200;52.194;9.900;2023-01-19T03:42:56;3.30;;;1.47;;
14231;SDS011;7200;52.194;9.900;2023-01-19T03:45:23;0.20;;;0.20;;
14231;SDS011;7200;52.194;9.900;2023-01-19T03:47:49;3.03;;;2.53;;
14231;SDS011;7200;52.194;9.900;2023-01-19T03:50:23;4.47;;;4.07;;
14231;SDS011;7200;52.194;9.900;2023-01-19T03:55:29;4.60;;;3.83;;
14231;SDS011;7200;52.194;9.900;2023-01-19T03:57:54;3.63;;;3.27;;
14231;SDS011;7200;52.194;9.900;2023-01-19T04:00:20;5.87;;;5.27;;
14231;SDS011;7200;52.194;9.900;2023-01-19T04:02:45;3.73;;;3.43;;
14231;SDS011;7200;52.194;9.900;2023-01-19T04:05:10;1.90;;;1.50;;
14231;SDS011;7200;52.194;9.900;2023-01-19T04:07:35;1.03;;;1.03;;
14231;SDS011;7200;52.194;9.900;2023-01-19T04:10:01;1.27;;;1.17;;
14231;SDS011;7200;52.194;9.900;2023-01-19T04:12:26;1.03;;;0.93;;
14231;SDS011;7200;52.194;9.900;2023-01-19T04:14:51;3.70;;;2.90;;
14231;SDS011;7200;52.194;9.900;2023-01-19T04:17:17;1.90;;;1.80;;
14231;SDS011;7200;52.194;9.900;2023-01-19T04:19:42;2.73;;;2.47;;
14231;SDS011;7200;52.194;9.900;2023-01-19T04:22:07;1.97;;;1.87;;
14231;SDS011;7200;52.194;9.900;2023-01-19T04:24:33;0.50;;;0.50;;
14231;SDS011;7200;52.194;9.900;2023-01-19T04:26:58;4.97;;;4.47;;
14231;SDS011;7200;52.194;9.900;2023-01-19T04:29:23;3.30;;;3.00;;
14231;SDS011;7200;52.194;9.900;2023-01-19T04:31:49;4.40;;;2.97;;
14231;SDS011;7200;52.194;9.900;2023-01-19T04:34:14;0.57;;;0.57;;
14231;SDS011;7200;52.194;9.900;2023-01-19T04:36:39;3.40;;;3.20;;
14231;SDS011;7200;52.194;9.900;2023-01-19T04:39:05;1.77;;;1.60;;
14231;SDS011;7200;52.194;9.900;2023-01-19T04:41:32;3.23;;;2.70;;
14231;SDS011;7200;52.194;9.900;2023-01-19T04:43:57;0.87;;;0.87;;
14231;SDS011;7200;52.194;9.900;2023-01-19T04:46:22;1.13;;;1.13;;
14231;SDS011;7200;52.194;9.900;2023-01-19T04:48:48;3.73;;;3.47;;
14231;SDS011;7200;52.194;9.900;2023-01-19T04:51:13;1.40;;;1.30;;
14231;SDS011;7200;52.194;9.900;2023-01-19T04:53:38;2.20;;;2.00;;
14231;SDS011;7200;52.194;9.900;2023-01-19T04:56:04;3.37;;;3.07;;
14231;SDS011;7200;52.194;9.900;2023-01-19T04:58:29;4.00;;;3.60;;
14231;SDS011;7200;52.194;9.900;2023-01-19T05:00:54;5.13;;;4.00;;
14231;SDS011;7200;52.194;9.900;2023-01-19T05:03:20;2.77;;;2.53;;
14231;SDS011;7200;52.194;9.900;2023-01-19T05:05:45;1.57;;;1.47;;
14231;SDS011;7200;52.194;9.900;2023-01-19T05:08:10;2.13;;;2.03;;
14231;SDS011;7200;52.194;9.900;2023-01-19T05:10:36;4.67;;;3.47;;
14231;SDS011;7200;52.194;9.900;2023-01-19T05:13:01;2.90;;;2.63;;
14231;SDS011;7200;52.194;9.900;2023-01-19T05:15:27;3.50;;;2.20;;
14231;SDS011;7200;52.194;9.900;2023-01-19T05:17:52;4.83;;;2.17;;
14231;SDS011;7200;52.194;9.900;2023-01-19T05:20:17;4.87;;;4.30;;
14231;SDS011;7200;52.194;9.900;2023-01-19T05:22:49;1.87;;;1.17;;
14231;SDS011;7200;52.194;9.900;2023-01-19T05:25:16;3.67;;;3.37;;
14231;SDS011;7200;52.194;9.900;2023-01-19T05:27:42;5.70;;;4.27;;
14231;SDS011;7200;52.194;9.900;2023-01-19T05:30:08;3.70;;;2.67;;
14231;SDS011;7200;52.194;9.900;2023-01-19T05:32:34;3.27;;;2.97;;
14231;SDS011;7200;52.194;9.900;2023-01-19T05:34:59;1.50;;;1.03;;
14231;SDS011;7200;52.194;9.900;2023-01-19T05:37:25;3.93;;;3.63;;
14231;SDS011;7200;52.194;9.900;2023-01-19T05:39:50;1.77;;;1.67;;
14231;SDS011;7200;52.194;9.900;2023-01-19T05:42:16;2.17;;;2.00;;
14231;SDS011;7200;52.194;9.900;2023-01-19T05:44:41;3.90;;;3.57;;
14231;SDS011;7200;52.194;9.900;2023-01-19T05:47:06;0.73;;;0.63;;
14231;SDS011;7200;52.194;9.900;2023-01-19T05:49:32;1.60;;;1.50;;
14231;SDS011;7200;52.194;9.900;2023-01-19T05:51:57;2.93;;;2.73;;
14231;SDS011;7200;52.194;9.900;2023-01-19T05:54:22;4.07;;;2.60;;
14231;SDS011;7200;52.194;9.900;2023-01-19T05:56:47;2.10;;;2.00;;
14231;SDS011;7200;52.194;9.900;2023-01-19T05:59:13;4.80;;;4.07;;
14231;SDS011;7200;52.194;9.900;2023-01-19T06:01:39;2.13;;;1.93;;
14231;SDS011;7200;52.194;9.900;2023-01-19T06:04:05;0.97;;;0.67;;
14231;SDS011;7200;52.194;9.900;2023-01-19T06:06:31;3.40;;;3.07;;
14231;SDS011;7200;52.194;9.900;2023-01-19T06:08:56;3.57;;;3.03;;
14231;SDS011;7200;52.194;9.900;2023-01-19T06:11:21;4.73;;;4.23;;
14231;SDS011;7200;52.194;9.900;2023-01-19T06:13:47;3.20;;;2.97;;
14231;SDS011;7200;52.194;9.900;2023-01-19T06:16:12;2.93;;;1.97;;
14231;SDS011;7200;52.194;9.900;2023-01-19T06:18:38;7.57;;;4.50;;
14231;SDS011;7200;52.194;9.900;2023-01-19T06:21:04;2.50;;;2.13;;
14231;SDS011;7200;52.194;9.900;2023-01-19T06:23:31;2.70;;;1.40;;
14231;SDS011;7200;52.194;9.900;2023-01-19T06:25:58;2.93;;;2.73;;
14231;SDS011;7200;52.194;9.900;2023-01-19T06:28:23;6.00;;;2.40;;
14231;SDS011;7200;52.194;9.900;2023-01-19T06:30:49;2.10;;;2.00;;
14231;SDS011;7200;52.194;9.900;2023-01-19T06:33:16;3.33;;;3.03;;
14231;SDS011;7200;52.194;9.900;2023-01-19T06:35:45;1.90;;;1.33;;
14231;SDS011;7200;52.194;9.900;2023-01-19T06:38:12;0.73;;;0.73;;
14231;SDS011;7200;52.194;9.900;2023-01-19T06:40:38;1.83;;;1.33;;
14231;SDS011;7200;52.194;9.900;2023-01-19T06:43:04;0.60;;;0.60;;
14231;SDS011;7200;52.194;9.900;2023-01-19T06:45:30;1.90;;;1.80;;
14231;SDS011;7200;52.194;9.900;2023-01-19T06:47:55;4.90;;;3.50;;
14231;SDS011;7200;52.194;9.900;2023-01-19T06:50:20;2.63;;;2.43;;
14231;SDS011;7200;52.194;9.900;2023-01-19T06:52:48;1.20;;;1.20;;
14231;SDS011;7200;52.194;9.900;2023-01-19T06:55:14;3.33;;;3.03;;
14231;SDS011;7200;52.194;9.900;2023-01-19T06:57:40;3.33;;;2.17;;
14231;SDS011;7200;52.194;9.900;2023-01-19T07:00:06;2.63;;;2.40;;
14231;SDS011;7200;52.194;9.900;2023-01-19T07:02:33;0.30;;;0.30;;
14231;SDS011;7200;52.194;9.900;2023-01-19T07:04:59;0.30;;;0.30;;
14231;SDS011;7200;52.194;9.900;2023-01-19T07:07:24;0.83;;;0.83;;
14231;SDS011;7200;52.194;9.900;2023-01-19T07:09:50;7.03;;;2.90;;
14231;SDS011;7200;52.194;9.900;2023-01-19T07:12:15;0.30;;;0.30;;
14231;SDS011;7200;52.194;9.900;2023-01-19T07:14:41;0.47;;;0.47;;
14231;SDS011;7200;52.194;9.900;2023-01-19T07:17:06;2.80;;;2.60;;
14231;SDS011;7200;52.194;9.900;2023-01-19T07:19:32;4.17;;;3.23;;
14231;SDS011;7200;52.194;9.900;2023-01-19T07:21:59;0.73;;;0.73;;
14231;SDS011;7200;52.194;9.900;2023-01-19T07:24:24;1.53;;;1.43;;
14231;SDS011;7200;52.194;9.900;2023-01-19T07:26:50;1.30;;;1.23;;
14231;SDS011;7200;52.194;9.900;2023-01-19T07:29:15;2.57;;;1.17;;
14231;SDS011;7200;52.194;9.900;2023-01-19T07:31:40;0.70;;;0.70;;
14231;SDS011;7200;52.194;9.900;2023-01-19T07:34:05;2.57;;;2.43;;
14231;SDS011;7200;52.194;9.900;2023-01-19T07:36:31;0.87;;;0.87;;
14231;SDS011;7200;52.194;9.900;2023-01-19T07:38:56;3.23;;;2.93;;
14231;SDS011;7200;52.194;9.900;2023-01-19T07:41:21;2.83;;;2.63;;
14231;SDS011;7200;52.194;9.900;2023-01-19T07:43:46;3.70;;;2.63;;
14231;SDS011;7200;52.194;9.900;2023-01-19T07:46:12;1.30;;;1.20;;
14231;SDS011;7200;52.194;9.900;2023-01-19T07:48:37;0.20;;;0.20;;
14231;SDS011;7200;52.194;9.900;2023-01-19T07:51:03;1.10;;;1.10;;
14231;SDS011;7200;52.194;9.900;2023-01-19T07:53:32;0.80;;;0.80;;
14231;SDS011;7200;52.194;9.900;2023-01-19T07:55:57;2.83;;;2.63;;
14231;SDS011;7200;52.194;9.900;2023-01-19T07:58:23;0.80;;;0.80;;
14231;SDS011;7200;52.194;9.900;2023-01-19T08:00:49;2.13;;;1.93;;
14231;SDS011;7200;52.194;9.900;2023-01-19T08:03:14;0.40;;;0.40;;
14231;SDS011;7200;52.194;9.900;2023-01-19T08:05:40;0.80;;;0.80;;
14231;SDS011;7200;52.194;9.900;2023-01-19T08:08:05;0.87;;;0.50;;
14231;SDS011;7200;52.194;9.900;2023-01-19T08:10:31;2.90;;;1.57;;
14231;SDS011;7200;52.194;9.900;2023-01-19T08:12:57;3.37;;;2.90;;
14231;SDS011;7200;52.194;9.900;2023-01-19T08:15:23;19.20;;;2.23;;
14231;SDS011;7200;52.194;9.900;2023-01-19T08:17:58;2.67;;;2.40;;
14231;SDS011;7200;52.194;9.900;2023-01-19T08:20:29;3.73;;;2.00;;
14231;SDS011;7200;52.194;9.900;2023-01-19T08:22:56;1.40;;;1.17;;
14231;SDS011;7200;52.194;9.900;2023-01-19T08:25:30;4.83;;;4.03;;
14231;SDS011;7200;52.194;9.900;2023-01-19T08:27:57;3.30;;;2.43;;
14231;SDS011;7200;52.194;9.900;2023-01-19T08:30:22;6.47;;;3.50;;
14231;SDS011;7200;52.194;9.900;2023-01-19T08:32:50;1.20;;;1.20;;
14231;SDS011;7200;52.194;9.900;2023-01-19T08:35:17;1.70;;;1.33;;
14231;SDS011;7200;52.194;9.900;2023-01-19T08:37:43;5.13;;;2.87;;
14231;SDS011;7200;52.194;9.900;2023-01-19T08:40:08;1.50;;;1.23;;
14231;SDS011;7200;52.194;9.900;2023-01-19T08:42:34;4.00;;;3.33;;
14231;SDS011;7200;52.194;9.900;2023-01-19T08:44:59;3.77;;;3.40;;
14231;SDS011;7200;52.194;9.900;2023-01-19T08:47:24;3.63;;;2.63;;
14231;SDS011;7200;52.194;9.900;2023-01-19T08:49:50;3.60;;;2.63;;
14231;SDS011;7200;52.194;9.900;2023-01-19T08:52:15;4.00;;;3.60;;
14231;SDS011;7200;52.194;9.900;2023-01-19T08:54:40;1.40;;;1.03;;
14231;SDS011;7200;52.194;9.900;2023-01-19T08:57:05;1.73;;;1.60;;
14231;SDS011;7200;52.194;9.900;2023-01-19T08:59:31;1.10;;;0.87;;
14231;SDS011;7200;52.194;9.900;2023-01-19T09:01:56;0.40;;;0.40;;
14231;SDS011;7200;52.194;9.900;2023-01-19T09:04:22;1.93;;;1.73;;
14231;SDS011;7200;52.194;9.900;2023-01-19T09:06:48;3.67;;;0.83;;
14231;SDS011;7200;52.194;9.900;2023-01-19T09:09:14;3.70;;;3.37;;
14231;SDS011;7200;52.194;9.900;2023-01-19T09:11:39;2.87;;;1.87;;
14231;SDS011;7200;52.194;9.900;2023-01-19T09:14:04;3.30;;;2.60;;
14231;SDS011;7200;52.194;9.900;2023-01-19T09:16:30;4.90;;;4.50;;
14231;SDS011;7200;52.194;9.900;2023-01-19T09:18:55;2.33;;;2.13;;
14231;SDS011;7200;52.194;9.900;2023-01-19T09:21:20;7.40;;;3.73;;
14231;SDS011;7200;52.194;9.900;2023-01-19T09:23:45;7.43;;;5.03;;
14231;SDS011;7200;52.194;9.900;2023-01-19T09:26:11;1.20;;;1.13;;
14231;SDS011;7200;52.194;9.900;2023-01-19T09:28:36;1.87;;;1.77;;
14231;SDS011;7200;52.194;9.900;2023-01-19T09:31:03;5.10;;;4.67;;
14231;SDS011;7200;52.194;9.900;2023-01-19T09:33:30;2.17;;;1.90;;
14231;SDS011;7200;52.194;9.900;2023-01-19T09:35:55;1.93;;;1.33;;
14231;SDS011;7200;52.194;9.900;2023-01-19T09:38:20;3.47;;;3.17;;
14231;SDS011;7200;52.194;9.900;2023-01-19T09:40:50;1.53;;;1.20;;
14231;SDS011;7200;52.194;9.900;2023-01-19T09:43:29;5.40;;;4.37;;
14231;SDS011;7200;52.194;9.900;2023-01-19T09:46:00;3.00;;;1.80;;
14231;SDS011;7200;52.194;9.900;2023-01-19T09:51:05;4.50;;;3.83;;
14231;SDS011;7200;52.194;9.900;2023-01-19T09:56:21;0.43;;;0.43;;
14231;SDS011;7200;52.194;9.900;2023-01-19T09:58:47;4.97;;;3.53;;
14231;SDS011;7200;52.194;9.900;2023-01-19T10:01:19;3.53;;;3.13;;
14231;SDS011;7200;52.194;9.900;2023-01-19T10:06:58;2.30;;;2.07;;
14231;SDS011;7200;52.194;9.900;2023-01-19T10:12:22;1.67;;;1.50;;
14231;SDS011;7200;52.194;9.900;2023-01-19T10:15:29;5.00;;;4.60;;
14231;SDS011;7200;52.194;9.900;2023-01-19T10:18:17;4.60;;;4.17;;
14231;SDS011;7200;52.194;9.900;2023-01-19T10:26:05;5.20;;;4.80;;
14231;SDS011;7200;52.194;9.900;2023-01-19T10:28:36;1.50;;;0.97;;
14231;SDS011;7200;52.194;9.900;2023-01-19T10:31:02;3.40;;;1.60;;
14231;SDS011;7200;52.194;9.900;2023-01-19T10:33:30;4.17;;;3.77;;
14231;SDS011;7200;52.194;9.900;2023-01-19T10:36:04;1.17;;;1.03;;
14231;SDS011;7200;52.194;9.900;2023-01-19T10:38:31;1.57;;;1.47;;
14231;SDS011;7200;52.194;9.900;2023-01-19T10:40:59;1.53;;;1.37;;
14231;SDS011;7200;52.194;9.900;2023-01-19T10:46:06;3.50;;;3.20;;
14231;SDS011;7200;52.194;9.900;2023-01-19T10:48:58;0.53;;;0.53;;
14231;SDS011;7200;52.194;9.900;2023-01-19T10:51:24;3.73;;;3.10;;
14231;SDS011;7200;52.194;9.900;2023-01-19T10:53:56;3.23;;;2.23;;
14231;SDS011;7200;52.194;9.900;2023-01-19T10:56:35;3.40;;;3.10;;
14231;SDS011;7200;52.194;9.900;2023-01-19T10:59:03;3.77;;;3.47;;
14231;SDS011;7200;52.194;9.900;2023-01-19T11:01:29;1.27;;;0.90;;
14231;SDS011;7200;52.194;9.900;2023-01-19T11:03:59;5.33;;;4.93;;
14231;SDS011;7200;52.194;9.900;2023-01-19T11:06:30;3.10;;;2.80;;
14231;SDS011;7200;52.194;9.900;2023-01-19T11:11:46;4.47;;;4.07;;
14231;SDS011;7200;52.194;9.900;2023-01-19T11:14:24;5.00;;;4.10;;
14231;SDS011;7200;52.194;9.900;2023-01-19T11:16:53;2.73;;;2.47;;
14231;SDS011;7200;52.194;9.900;2023-01-19T11:19:25;2.50;;;2.40;;
14231;SDS011;7200;52.194;9.900;2023-01-19T11:22:06;3.60;;;3.30;;
14231;SDS011;7200;52.194;9.900;2023-01-19T11:24:39;1.97;;;1.87;;
14231;SDS011;7200;52.194;9.900;2023-01-19T11:27:07;3.10;;;2.90;;
14231;SDS011;7200;52.194;9.900;2023-01-19T11:29:32;1.80;;;1.60;;
14231;SDS011;7200;52.194;9.900;2023-01-19T11:32:08;2.67;;;2.47;;
14231;SDS011;7200;52.194;9.900;2023-01-19T11:34:35;2.90;;;2.70;;
14231;SDS011;7200;52.194;9.900;2023-01-19T11:37:23;2.77;;;2.57;;
14231;SDS011;7200;52.194;9.900;2023-01-19T11:39:58;3.67;;;3.37;;
14231;SDS011;7200;52.194;9.900;2023-01-19T11:42:27;3.03;;;2.83;;
14231;SDS011;7200;52.194;9.900;2023-01-19T11:45:00;1.33;;;1.23;;
14231;SDS011;7200;52.194;9.900;2023-01-19T11:47:29;3.00;;;2.80;;
14231;SDS011;7200;52.194;9.900;2023-01-19T11:53:22;1.90;;;1.53;;
14231;SDS011;7200;52.194;9.900;2023-01-19T11:58:36;2.10;;;1.90;;
14231;SDS011;7200;52.194;9.900;2023-01-19T12:01:16;1.70;;;1.60;;
14231;SDS011;7200;52.194;9.900;2023-01-19T12:04:09;2.80;;;2.63;;
14231;SDS011;7200;52.194;9.900;2023-01-19T12:06:48;2.27;;;2.07;;
14231;SDS011;7200;52.194;9.900;2023-01-19T12:09:18;2.40;;;1.90;;
14231;SDS011;7200;52.194;9.900;2023-01-19T12:11:54;3.67;;;2.77;;
14231;SDS011;7200;52.194;9.900;2023-01-19T12:14:30;2.70;;;2.23;;
14231;SDS011;7200;52.194;9.900;2023-01-19T12:17:02;4.70;;;4.30;;
14231;SDS011;7200;52.194;9.900;2023-01-19T12:19:51;3.37;;;2.73;;
14231;SDS011;7200;52.194;9.900;2023-01-19T12:22:24;2.63;;;2.43;;
14231;SDS011;7200;52.194;9.900;2023-01-19T12:25:10;3.97;;;3.67;;
14231;SDS011;7200;52.194;9.900;2023-01-19T12:27:43;4.87;;;4.47;;
14231;SDS011;7200;52.194;9.900;2023-01-19T12:32:43;3.70;;;3.40;;
14231;SDS011;7200;52.194;9.900;2023-01-19T12:39:13;3.70;;;3.40;;
14231;SDS011;7200;52.194;9.900;2023-01-19T12:41:18;6.27;;;5.77;;
14231;SDS011;7200;52.194;9.900;2023-01-19T12:43:47;4.27;;;3.77;;
14231;SDS011;7200;52.194;9.900;2023-01-19T12:46:23;5.00;;;4.50;;
14231;SDS011;7200;52.194;9.900;2023-01-19T12:48:53;3.10;;;2.83;;
14231;SDS011;7200;52.194;9.900;2023-01-19T12:51:25;6.00;;;5.50;;
14231;SDS011;7200;52.194;9.900;2023-01-19T12:53:54;5.40;;;4.90;;
14231;SDS011;7200;52.194;9.900;2023-01-19T12:56:27;4.07;;;3.37;;
14231;SDS011;7200;52.194;9.900;2023-01-19T12:58:55;4.07;;;3.77;;
14231;SDS011;7200;52.194;9.900;2023-01-19T13:01:20;5.23;;;4.73;;
14231;SDS011;7200;52.194;9.900;2023-01-19T13:06:16;5.73;;;5.23;;
14231;SDS011;7200;52.194;9.900;2023-01-19T13:11:16;4.93;;;4.53;;
14231;SDS011;7200;52.194;9.900;2023-01-19T13:13:44;5.33;;;4.83;;
14231;SDS011;7200;52.194;9.900;2023-01-19T13:21:32;4.27;;;3.87;;
14231;SDS011;7200;52.194;9.900;2023-01-19T13:24:05;4.40;;;4.10;;
14231;SDS011;7200;52.194;9.900;2023-01-19T13:26:33;4.73;;;4.30;;
14231;SDS011;7200;52.194;9.900;2023-01-19T13:29:21;5.77;;;5.27;;
14231;SDS011;7200;52.194;9.900;2023-01-19T13:31:54;5.10;;;4.70;;
14231;SDS011;7200;52.194;9.900;2023-01-19T13:34:26;5.20;;;4.67;;
14231;SDS011;7200;52.194;9.900;2023-01-19T13:36:55;4.80;;;4.40;;
14231;SDS011;7200;52.194;9.900;2023-01-19T13:41:54;5.93;;;5.43;;
14231;SDS011;7200;52.194;9.900;2023-01-19T13:44:25;3.30;;;2.67;;
14231;SDS011;7200;52.194;9.900;2023-01-19T13:46:54;5.57;;;5.07;;
14231;SDS011;7200;52.194;9.900;2023-01-19T13:52:22;4.87;;;4.27;;
14231;SDS011;7200;52.194;9.900;2023-01-19T13:54:49;4.07;;;3.60;;
14231;SDS011;7200;52.194;9.900;2023-01-19T14:00:05;9.20;;;5.37;;
14231;SDS011;7200;52.194;9.900;2023-01-19T14:02:35;4.07;;;3.67;;
14231;SDS011;7200;52.194;9.900;2023-01-19T14:05:14;6.73;;;5.87;;
14231;SDS011;7200;52.194;9.900;2023-01-19T14:07:45;7.73;;;5.93;;
14231;SDS011;7200;52.194;9.900;2023-01-19T14:10:11;9.30;;;5.37;;
14231;SDS011;7200;52.194;9.900;2023-01-19T14:12:40;7.83;;;5.97;;
14231;SDS011;7200;52.194;9.900;2023-01-19T14:15:08;5.73;;;4.73;;
14231;SDS011;7200;52.194;9.900;2023-01-19T14:17:38;5.97;;;4.80;;
14231;SDS011;7200;52.194;9.900;2023-01-19T14:20:05;8.77;;;6.77;;
14231;SDS011;7200;52.194;9.900;2023-01-19T14:22:38;7.53;;;4.83;;
14231;SDS011;7200;52.194;9.900;2023-01-19T14:30:56;11.57;;;5.87;;
14231;SDS011;7200;52.194;9.900;2023-01-19T14:33:39;7.33;;;5.27;;
14231;SDS011;7200;52.194;9.900;2023-01-19T14:36:16;19.50;;;7.20;;
14231;SDS011;7200;52.194;9.900;2023-01-19T14:38:47;13.37;;;7.33;;
14231;SDS011;7200;52.194;9.900;2023-01-19T14:41:22;7.27;;;3.70;;
14231;SDS011;7200;52.194;9.900;2023-01-19T14:43:48;11.90;;;6.37;;
14231;SDS011;7200;52.194;9.900;2023-01-19T14:46:15;3.80;;;3.33;;
14231;SDS011;7200;52.194;9.900;2023-01-19T14:48:46;12.43;;;6.83;;
14231;SDS011;7200;52.194;9.900;2023-01-19T14:51:15;15.73;;;9.40;;
14231;SDS011;7200;52.194;9.900;2023-01-19T14:53:45;11.30;;;5.37;;
14231;SDS011;7200;52.194;9.900;2023-01-19T14:56:22;13.77;;;6.07;;
14231;SDS011;7200;52.194;9.900;2023-01-19T14:58:50;13.03;;;7.10;;
14231;SDS011;7200;52.194;9.900;2023-01-19T15:01:15;11.07;;;5.40;;
14231;SDS011;7200;52.194;9.900;2023-01-19T15:03:40;9.43;;;5.90;;
14231;SDS011;7200;52.194;9.900;2023-01-19T15:06:08;10.00;;;4.53;;
14231;SDS011;7200;52.194;9.900;2023-01-19T15:08:37;10.97;;;7.30;;
14231;SDS011;7200;52.194;9.900;2023-01-19T15:11:08;15.13;;;8.63;;
14231;SDS011;7200;52.194;9.900;2023-01-19T15:13:36;15.27;;;6.97;;
14231;SDS011;7200;52.194;9.900;2023-01-19T15:16:03;15.93;;;8.37;;
14231;SDS011;7200;52.194;9.900;2023-01-19T15:18:29;16.40;;;9.80;;
14231;SDS011;7200;52.194;9.900;2023-01-19T15:20:54;18.00;;;9.40;;
14231;SDS011;7200;52.194;9.900;2023-01-19T15:23:26;10.03;;;7.97;;
14231;SDS011;7200;52.194;9.900;2023-01-19T15:25:51;14.07;;;7.03;;
14231;SDS011;7200;52.194;9.900;2023-01-19T15:28:23;10.57;;;7.47;;
14231;SDS011;7200;52.194;9.900;2023-01-19T15:30:48;10.20;;;7.47;;
14231;SDS011;7200;52.194;9.900;2023-01-19T15:33:18;11.13;;;6.73;;
14231;SDS011;7200;52.194;9.900;2023-01-19T15:35:45;12.57;;;5.93;;
14231;SDS011;7200;52.194;9.900;2023-01-19T15:38:10;10.07;;;6.07;;
14231;SDS011;7200;52.194;9.900;2023-01-19T15:40:35;10.70;;;6.93;;
14231;SDS011;7200;52.194;9.900;2023-01-19T15:43:01;12.83;;;6.20;;
14231;SDS011;7200;52.194;9.900;2023-01-19T15:45:30;9.97;;;5.43;;
14231;SDS011;7200;52.194;9.900;2023-01-19T15:48:02;9.60;;;6.57;;
14231;SDS011;7200;52.194;9.900;2023-01-19T15:50:29;13.87;;;7.90;;
14231;SDS011;7200;52.194;9.900;2023-01-19T15:52:55;11.37;;;6.47;;
14231;SDS011;7200;52.194;9.900;2023-01-19T15:55:20;10.77;;;6.37;;
14231;SDS011;7200;52.194;9.900;2023-01-19T15:57:46;6.40;;;4.23;;
14231;SDS011;7200;52.194;9.900;2023-01-19T16:00:12;12.30;;;6.83;;
14231;SDS011;7200;52.194;9.900;2023-01-19T16:02:38;17.23;;;8.67;;
14231;SDS011;7200;52.194;9.900;2023-01-19T16:05:04;10.37;;;6.67;;
14231;SDS011;7200;52.194;9.900;2023-01-19T16:07:31;7.20;;;5.07;;
14231;SDS011;7200;52.194;9.900;2023-01-19T16:09:57;13.33;;;7.27;;
14231;SDS011;7200;52.194;9.900;2023-01-19T16:12:22;55.47;;;29.17;;
14231;SDS011;7200;52.194;9.900;2023-01-19T16:14:47;57.43;;;26.97;;
14231;SDS011;7200;52.194;9.900;2023-01-19T16:17:13;16.10;;;9.20;;
14231;SDS011;7200;52.194;9.900;2023-01-19T16:19:38;8.97;;;5.87;;
14231;SDS011;7200;52.194;9.900;2023-01-19T16:22:03;6.77;;;3.17;;
14231;SDS011;7200;52.194;9.900;2023-01-19T16:24:29;8.53;;;6.00;;
14231;SDS011;7200;52.194;9.900;2023-01-19T16:26:55;12.03;;;10.67;;
14231;SDS011;7200;52.194;9.900;2023-01-19T16:29:20;14.23;;;7.53;;